createdAt,value
2019-03-11T00:00:57.943Z,20.10
2019-03-11T00:04:06.420Z,20.07
2019-03-11T00:06:54.787Z,19.13
2019-03-11T00:09:59.540Z,21.47
2019-03-11T00:12:47.739Z,22.23
2019-03-11T00:15:52.281Z,23.73
2019-03-11T00:18:40.287Z,22.90
2019-03-11T00:21:45.059Z,21.53
2019-03-11T00:24:32.851Z,21.70
2019-03-11T00:27:37.564Z,21.80
2019-03-11T00:30:42.352Z,22.13
2019-03-11T00:33:30.279Z,20.43
2019-03-11T00:36:36.786Z,19.67
2019-03-11T00:39:24.621Z,19.23
2019-03-11T00:42:29.056Z,20.37
2019-03-11T00:45:16.883Z,17.93
2019-03-11T00:48:21.765Z,18.70
2019-03-11T00:51:10.095Z,18.60
2019-03-11T00:54:14.806Z,18.27
2019-03-11T00:57:02.500Z,17.70
2019-03-11T01:00:08.579Z,19.83
2019-03-11T01:02:56.646Z,17.70
2019-03-11T01:06:01.206Z,17.27
2019-03-11T01:08:49.367Z,20.37
2019-03-11T01:11:55.087Z,23.13
2019-03-11T01:14:42.980Z,21.57
2019-03-11T01:17:47.459Z,21.27
2019-03-11T01:20:35.806Z,24.10
2019-03-11T01:23:40.409Z,25.43
2019-03-11T01:26:28.413Z,24.10
2019-03-11T01:29:32.842Z,25.27
2019-03-11T01:32:20.678Z,24.90
2019-03-11T01:35:25.632Z,23.53
2019-03-11T01:38:13.753Z,21.33
2019-03-11T01:41:18.599Z,18.57
2019-03-11T01:44:06.542Z,20.67
2019-03-11T01:47:11.352Z,17.47
2019-03-11T01:49:59.294Z,17.07
2019-03-11T01:53:07.054Z,17.77
2019-03-11T01:55:55.904Z,15.53
2019-03-11T01:59:01.942Z,15.37
2019-03-11T02:01:49.951Z,14.93
2019-03-11T02:04:56.860Z,16.10
2019-03-11T02:07:45.000Z,16.07
2019-03-11T02:10:50.112Z,13.97
2019-03-11T02:13:37.956Z,14.37
2019-03-11T02:16:42.787Z,13.07
2019-03-11T02:19:30.903Z,13.23
2019-03-11T02:22:36.008Z,12.17
2019-03-11T02:25:24.132Z,13.33
2019-03-11T02:28:28.756Z,11.80
2019-03-11T02:31:17.017Z,12.03
2019-03-11T02:34:21.682Z,12.50
2019-03-11T02:37:09.807Z,13.03
2019-03-11T02:40:14.419Z,11.63
2019-03-11T02:43:02.360Z,13.17
2019-03-11T02:46:07.257Z,14.73
2019-03-11T02:48:55.134Z,19.40
2019-03-11T02:52:00.024Z,20.57
2019-03-11T02:54:48.329Z,18.67
2019-03-11T02:57:54.498Z,14.67
2019-03-11T03:00:42.402Z,15.20
2019-03-11T03:06:59.730Z,12.90
2019-03-11T03:10:04.411Z,13.40
2019-03-11T03:12:52.204Z,13.47
2019-03-11T03:15:56.606Z,12.77
2019-03-11T03:18:44.850Z,14.67
2019-03-11T03:21:49.782Z,14.80
2019-03-11T03:24:37.606Z,14.47
2019-03-11T03:27:42.614Z,13.80
2019-03-11T03:30:30.489Z,13.47
2019-03-11T03:33:35.455Z,12.53
2019-03-11T03:36:23.735Z,12.13
2019-03-11T03:39:28.141Z,11.20
2019-03-11T03:42:16.202Z,10.70
2019-03-11T03:45:20.697Z,9.63
2019-03-11T03:48:08.794Z,9.63
2019-03-11T03:51:13.398Z,9.50
2019-03-11T03:54:01.119Z,10.87
2019-03-11T03:57:05.929Z,10.73
2019-03-11T03:59:53.741Z,9.43
2019-03-11T04:02:58.724Z,9.60
2019-03-11T04:05:46.468Z,8.57
2019-03-11T04:08:51.026Z,8.13
2019-03-11T04:11:39.156Z,8.43
2019-03-11T04:14:43.810Z,8.13
2019-03-11T04:17:31.693Z,8.03
2019-03-11T04:20:36.490Z,7.90
2019-03-11T04:23:24.381Z,7.67
2019-03-11T04:26:29.416Z,7.47
2019-03-11T04:29:17.428Z,8.60
2019-03-11T04:32:22.362Z,8.70
2019-03-11T04:35:10.162Z,8.23
2019-03-11T04:38:15.163Z,10.17
2019-03-11T04:41:03.294Z,9.07
2019-03-11T04:44:07.928Z,9.77
2019-03-11T04:46:55.878Z,8.80
2019-03-11T04:50:00.718Z,7.83
2019-03-11T04:52:48.736Z,8.50
2019-03-11T04:55:53.670Z,10.20
2019-03-11T04:58:41.916Z,10.10
2019-03-11T05:01:46.636Z,9.97
2019-03-11T05:04:35.901Z,9.50
2019-03-11T05:07:40.574Z,8.60
2019-03-11T05:10:28.831Z,8.60
2019-03-11T05:13:33.580Z,8.80
2019-03-11T05:16:21.363Z,7.83
2019-03-11T05:19:26.249Z,7.63
2019-03-11T05:22:14.414Z,7.80
2019-03-11T05:25:19.252Z,8.53
2019-03-11T05:28:07.499Z,8.60
2019-03-11T05:53:34.535Z,6.80
2019-03-11T05:56:39.693Z,7.63
2019-03-11T05:59:28.119Z,7.53
2019-03-11T06:02:32.514Z,6.50
2019-03-11T06:05:20.515Z,7.83
2019-03-11T06:08:24.976Z,6.67
2019-03-11T06:11:13.654Z,5.50
2019-03-11T06:14:18.245Z,4.70
2019-03-11T06:17:06.063Z,3.93
2019-03-11T06:20:21.769Z,3.97
2019-03-11T06:23:11.867Z,10.03
2019-03-11T06:26:16.594Z,6.97
2019-03-11T06:29:06.757Z,7.07
2019-03-11T06:32:14.515Z,5.53
2019-03-11T06:35:02.856Z,5.47
2019-03-11T08:18:03.348Z,3.27
2019-03-11T08:20:32.543Z,2.90
2019-03-11T08:23:01.629Z,2.53
2019-03-11T08:25:33.577Z,3.20
2019-03-11T08:28:05.195Z,4.30
2019-03-11T08:30:34.014Z,3.50
2019-03-11T08:33:06.112Z,3.47
2019-03-11T08:35:34.967Z,4.00
2019-03-11T08:38:05.188Z,4.35
2019-03-11T08:40:37.366Z,3.37
2019-03-11T08:43:06.336Z,4.27
2019-03-11T08:45:35.082Z,3.90
2019-03-11T08:48:06.932Z,3.90
2019-03-11T08:50:35.642Z,3.20
2019-03-11T08:53:05.977Z,3.20
2019-03-11T08:55:34.873Z,3.37
2019-03-11T08:58:03.634Z,2.62
2019-03-11T09:00:32.415Z,3.20
2019-03-11T09:03:03.074Z,2.70
2019-03-11T09:05:32.066Z,2.45
2019-03-11T09:08:03.401Z,2.30
2019-03-11T09:10:33.959Z,2.50
2019-03-11T09:13:02.747Z,1.90
2019-03-11T09:15:32.680Z,2.30
2019-03-11T09:18:02.348Z,2.40
2019-03-11T09:20:31.136Z,2.17
2019-03-11T09:23:01.667Z,2.30
2019-03-11T09:25:33.657Z,2.10
2019-03-11T09:28:02.447Z,2.17
2019-03-11T09:30:31.221Z,2.77
2019-03-11T09:33:00.021Z,4.45
2019-03-11T09:35:28.790Z,2.15
2019-03-11T09:37:59.262Z,2.02
2019-03-11T09:40:28.072Z,2.50
2019-03-11T09:42:58.195Z,1.92
2019-03-11T09:45:27.175Z,2.02
2019-03-11T09:47:55.977Z,2.33
2019-03-11T09:50:24.879Z,2.10
2019-03-11T09:52:54.034Z,23.73
2019-03-11T09:55:25.027Z,3.02
2019-03-11T09:57:53.939Z,2.60
2019-03-11T10:00:24.888Z,2.08
2019-03-11T10:02:53.782Z,3.55
2019-03-11T10:05:22.467Z,1.87
2019-03-11T10:07:51.819Z,1.90
2019-03-11T10:10:22.433Z,1.17
2019-03-11T10:12:51.208Z,1.65
2019-03-11T10:15:23.785Z,1.20
2019-03-11T10:17:53.108Z,6.30
2019-03-11T10:20:22.410Z,1.67
2019-03-11T10:22:51.630Z,2.00
2019-03-11T10:25:21.442Z,1.90
2019-03-11T10:27:50.607Z,1.47
2019-03-11T10:30:20.634Z,1.30
2019-03-11T10:33:05.973Z,1.37
2019-03-11T10:35:34.166Z,1.57
2019-03-11T10:38:02.932Z,1.95
2019-03-11T10:40:34.688Z,1.85
2019-03-11T10:43:03.475Z,4.25
2019-03-11T10:45:32.504Z,2.27
2019-03-11T10:48:01.427Z,1.47
2019-03-11T10:50:30.469Z,1.30
2019-03-11T10:52:59.155Z,1.10
2019-03-11T10:55:28.512Z,1.42
2019-03-11T10:57:57.254Z,1.37
2019-03-11T11:00:29.133Z,0.95
2019-03-11T11:03:01.248Z,1.35
2019-03-11T11:05:30.080Z,1.77
2019-03-11T11:07:59.101Z,2.25
2019-03-11T11:10:30.888Z,1.87
2019-03-11T11:12:59.656Z,1.12
2019-03-11T11:15:30.809Z,2.42
2019-03-11T11:17:59.614Z,1.30
2019-03-11T11:20:28.800Z,0.93
2019-03-11T11:22:57.650Z,1.02
2019-03-11T11:25:28.144Z,1.72
2019-03-11T11:27:57.275Z,0.95
2019-03-11T11:30:49.594Z,1.47
2019-03-11T11:33:37.698Z,1.20
2019-03-11T11:36:42.104Z,1.20
2019-03-11T11:39:30.171Z,1.42
2019-03-11T11:42:34.767Z,3.70
2019-03-11T11:45:22.844Z,1.00
2019-03-11T11:48:27.922Z,3.72
2019-03-11T11:51:16.257Z,1.12
2019-03-11T11:54:20.832Z,1.35
2019-03-11T11:57:09.046Z,1.40
2019-03-11T12:00:14.051Z,1.22
2019-03-11T12:03:02.109Z,1.67
2019-03-11T12:06:07.288Z,0.93
2019-03-11T12:08:55.471Z,1.17
2019-03-11T12:12:00.337Z,1.40
2019-03-11T12:14:48.690Z,1.10
2019-03-11T12:17:53.741Z,1.40
2019-03-11T12:20:58.765Z,1.27
2019-03-11T12:23:47.309Z,1.22
2019-03-11T12:26:51.909Z,1.17
2019-03-11T12:29:39.993Z,1.17
2019-03-11T12:32:45.115Z,1.30
2019-03-11T12:35:33.283Z,1.32
2019-03-11T12:38:38.251Z,1.52
2019-03-11T12:41:26.466Z,1.32
2019-03-11T12:44:31.073Z,1.80
2019-03-11T12:47:19.016Z,1.17
2019-03-11T12:50:24.074Z,1.92
2019-03-11T12:53:12.252Z,2.40
2019-03-11T12:56:16.772Z,1.42
2019-03-11T12:59:04.636Z,2.42
2019-03-11T13:02:09.638Z,2.52
2019-03-11T13:04:57.757Z,4.20
2019-03-11T13:08:02.419Z,3.45
2019-03-11T13:10:50.136Z,1.90
2019-03-11T13:13:54.656Z,2.22
2019-03-11T13:16:42.616Z,2.05
2019-03-11T13:19:47.362Z,1.50
2019-03-11T13:22:35.528Z,1.98
2019-03-11T13:25:40.235Z,1.92
2019-03-11T13:28:29.056Z,2.08
2019-03-11T13:31:34.005Z,1.90
2019-03-11T13:34:21.951Z,2.10
2019-03-11T13:37:26.746Z,1.70
2019-03-11T13:40:16.272Z,3.62
2019-03-11T13:43:22.881Z,2.20
2019-03-11T13:46:10.767Z,2.60
2019-03-11T13:49:18.810Z,2.00
2019-03-11T13:52:09.670Z,3.00
2019-03-11T13:55:14.574Z,3.43
2019-03-11T13:58:03.231Z,3.13
2019-03-11T14:01:08.399Z,2.62
2019-03-11T14:03:56.500Z,2.83
2019-03-11T14:07:00.988Z,2.45
2019-03-11T14:09:48.895Z,3.10
2019-03-11T14:12:53.969Z,3.00
2019-03-11T14:15:41.759Z,2.47
2019-03-11T14:18:46.674Z,2.10
2019-03-11T14:21:34.472Z,2.40
2019-03-11T14:24:39.103Z,2.97
2019-03-11T14:27:27.381Z,2.67
2019-03-11T14:30:32.128Z,2.20
2019-03-11T14:33:20.098Z,3.00
2019-03-11T14:36:24.649Z,3.37
2019-03-11T14:39:12.867Z,4.00
2019-03-11T14:42:17.497Z,3.90
2019-03-11T14:45:05.567Z,3.03
2019-03-11T14:48:10.062Z,2.17
2019-03-11T14:50:38.844Z,8.60
2019-03-11T14:53:07.526Z,7.00
2019-03-11T14:55:36.234Z,8.40
2019-03-11T14:58:04.903Z,4.33
2019-03-11T15:00:33.574Z,4.13
2019-03-11T15:03:02.200Z,3.70
2019-03-11T15:05:31.383Z,3.87
2019-03-11T15:08:00.006Z,3.50
2019-03-11T15:10:28.651Z,3.63
2019-03-11T15:12:57.332Z,4.23
2019-03-11T15:15:26.506Z,4.33
2019-03-11T15:17:55.131Z,5.00
2019-03-11T15:20:23.794Z,3.60
2019-03-11T15:22:52.417Z,3.77
2019-03-11T15:25:21.164Z,3.60
2019-03-11T15:27:52.704Z,3.83
2019-03-11T15:30:22.880Z,3.50
2019-03-11T15:32:51.600Z,3.37
2019-03-11T15:35:20.619Z,3.37
2019-03-11T15:37:49.387Z,4.00
2019-03-11T15:40:18.777Z,3.50
2019-03-11T15:42:50.228Z,3.33
2019-03-11T15:45:19.767Z,5.57
2019-03-11T15:47:51.457Z,5.03
2019-03-11T15:50:33.840Z,4.27
2019-03-11T15:53:02.609Z,4.83
2019-03-11T15:55:31.349Z,6.93
2019-03-11T15:57:59.986Z,6.40
2019-03-11T16:00:28.726Z,5.93
2019-03-11T16:02:57.462Z,5.53
2019-03-11T16:05:26.752Z,5.37
2019-03-11T16:07:58.655Z,6.07
2019-03-11T16:10:27.401Z,4.10
2019-03-11T16:12:56.055Z,5.40
2019-03-11T16:15:24.719Z,5.27
2019-03-11T16:17:53.306Z,3.97
2019-03-11T16:20:24.108Z,5.30
2019-03-11T16:22:52.797Z,6.00
2019-03-11T16:25:21.548Z,7.20
2019-03-11T16:27:55.968Z,7.33
2019-03-11T16:30:25.741Z,6.57
2019-03-11T16:33:00.451Z,9.93
2019-03-11T16:35:27.039Z,13.53
2019-03-11T16:37:55.793Z,18.80
2019-03-11T16:40:24.474Z,20.40
2019-03-11T16:42:53.112Z,13.20
2019-03-11T16:45:22.061Z,8.83
2019-03-11T16:47:50.690Z,11.33
2019-03-11T16:50:26.775Z,9.10
2019-03-11T16:52:55.388Z,5.10
2019-03-11T16:55:28.742Z,5.00
2019-03-11T16:57:57.382Z,4.83
2019-03-11T17:00:39.738Z,6.10
2019-03-11T17:03:08.853Z,9.67
2019-03-11T17:05:37.529Z,13.53
2019-03-11T17:08:06.171Z,13.03
2019-03-11T17:10:34.843Z,13.03
2019-03-11T17:13:03.477Z,12.70
2019-03-11T17:15:32.148Z,11.93
2019-03-11T17:18:00.785Z,11.93
2019-03-11T17:20:29.519Z,11.80
2019-03-11T17:22:58.141Z,12.83
2019-03-11T17:25:26.779Z,12.20
2019-03-11T17:27:55.447Z,12.73
2019-03-11T17:30:27.536Z,12.53
2019-03-11T17:32:56.170Z,11.23
2019-03-11T17:35:24.879Z,14.13
2019-03-11T17:37:53.546Z,15.27
2019-03-11T17:40:23.570Z,15.40
2019-03-11T17:42:52.506Z,12.93
2019-03-11T17:45:21.264Z,12.57
2019-03-11T17:47:49.899Z,15.30
2019-03-11T17:50:25.798Z,14.77
2019-03-11T17:52:54.438Z,14.00
2019-03-11T17:55:23.073Z,17.23
2019-03-11T17:57:51.813Z,16.73
2019-03-11T18:00:38.147Z,14.63
2019-03-11T18:03:06.991Z,12.30
2019-03-11T18:05:35.685Z,18.13
2019-03-11T18:08:04.639Z,22.30
2019-03-11T18:10:33.327Z,22.57
2019-03-11T18:13:02.175Z,23.20
2019-03-11T18:15:30.889Z,22.83
2019-03-11T18:17:59.621Z,22.83
2019-03-11T18:20:28.573Z,22.47
2019-03-11T18:22:57.513Z,23.93
2019-03-11T18:25:26.512Z,19.03
2019-03-11T18:27:55.566Z,14.17
2019-03-11T18:30:30.458Z,22.07
2019-03-11T18:32:59.219Z,24.00
2019-03-11T18:35:27.825Z,21.10
2019-03-11T18:38:04.197Z,20.80
2019-03-11T18:40:29.876Z,18.40
2019-03-11T18:43:01.274Z,22.60
2019-03-11T18:45:29.947Z,18.30
2019-03-11T18:47:58.589Z,17.67
2019-03-11T18:50:27.299Z,15.33
2019-03-11T18:52:55.843Z,14.97
2019-03-11T18:55:27.552Z,17.53
2019-03-11T18:57:56.237Z,14.60
2019-03-11T19:00:25.298Z,15.17
2019-03-11T19:02:53.981Z,15.57
2019-03-11T19:05:23.740Z,15.07
2019-03-11T19:07:54.891Z,14.90
2019-03-11T19:10:22.730Z,15.57
2019-03-11T19:12:51.367Z,14.47
2019-03-11T19:15:24.498Z,13.93
2019-03-11T19:17:55.793Z,13.03
2019-03-11T19:20:27.725Z,12.73
2019-03-11T19:22:56.346Z,10.77
2019-03-11T19:25:24.818Z,10.03
2019-03-11T19:27:53.423Z,9.60
2019-03-11T19:30:26.588Z,10.13
2019-03-11T19:32:55.298Z,10.60
2019-03-11T19:35:24.027Z,11.07
2019-03-11T19:37:52.813Z,10.73
2019-03-11T19:40:23.584Z,14.50
2019-03-11T19:42:52.295Z,13.63
2019-03-11T19:45:20.989Z,11.97
2019-03-11T19:47:49.672Z,11.67
2019-03-11T19:50:19.147Z,12.70
2019-03-11T19:52:57.959Z,9.00
2019-03-11T19:55:18.291Z,8.37
2019-03-11T19:57:47.163Z,8.53
2019-03-11T20:00:23.926Z,8.37
2019-03-11T20:02:52.757Z,7.80
2019-03-11T20:05:24.438Z,7.43
2019-03-11T20:07:53.184Z,7.07
2019-03-11T20:10:21.857Z,7.30
2019-03-11T20:12:50.513Z,6.10
2019-03-11T20:15:19.152Z,6.73
2019-03-11T20:17:48.108Z,7.17
2019-03-11T20:20:18.698Z,6.60
2019-03-11T20:22:48.495Z,6.43
2019-03-11T20:25:22.883Z,6.90
2019-03-11T20:27:51.438Z,7.00
2019-03-11T20:30:21.866Z,7.27
2019-03-11T20:32:50.502Z,7.50
2019-03-11T20:35:21.921Z,7.37
2019-03-11T20:37:50.536Z,7.53
2019-03-11T20:40:19.121Z,8.97
2019-03-11T20:42:47.982Z,8.27
2019-03-11T20:45:18.823Z,9.20
2019-03-11T20:47:47.522Z,9.40
2019-03-11T20:50:17.045Z,10.17
2019-03-11T20:52:45.775Z,10.63
2019-03-11T20:55:15.544Z,10.73
2019-03-11T20:57:44.153Z,10.07
2019-03-11T21:00:15.522Z,9.20
2019-03-11T21:02:44.273Z,10.00
2019-03-11T21:05:15.584Z,9.93
2019-03-11T21:07:44.158Z,7.87
2019-03-11T21:10:14.702Z,8.57
2019-03-11T21:12:43.516Z,7.93
2019-03-11T21:15:14.748Z,8.00
2019-03-11T21:17:43.467Z,7.13
2019-03-11T21:20:14.798Z,7.93
2019-03-11T21:22:43.475Z,7.60
2019-03-11T21:25:17.762Z,7.17
2019-03-11T21:27:46.516Z,9.97
2019-03-11T21:30:20.581Z,9.97
2019-03-11T21:32:49.292Z,8.73
2019-03-11T21:35:18.081Z,9.73
2019-03-11T21:37:46.698Z,9.20
2019-03-11T21:40:17.158Z,8.10
2019-03-11T21:42:45.964Z,8.40
2019-03-11T21:45:15.727Z,7.97
2019-03-11T21:47:44.353Z,8.00
2019-03-11T21:50:28.694Z,7.93
2019-03-11T21:52:57.413Z,8.47
2019-03-11T21:55:26.062Z,8.23
2019-03-11T21:57:54.692Z,8.53
2019-03-11T22:00:34.002Z,9.53
2019-03-11T22:02:54.528Z,10.43
2019-03-11T22:05:23.086Z,10.43
2019-03-11T22:07:51.759Z,11.53
2019-03-11T22:10:20.892Z,10.27
2019-03-11T22:12:49.802Z,10.87
2019-03-11T22:15:20.523Z,10.47
2019-03-11T22:17:49.082Z,10.57
2019-03-11T22:20:18.381Z,11.03
2019-03-11T22:22:47.016Z,10.40
2019-03-11T22:25:16.686Z,9.67
2019-03-11T22:27:45.367Z,8.50
2019-03-11T22:30:19.294Z,8.73
2019-03-11T22:32:47.932Z,9.30
2019-03-11T22:35:16.566Z,9.17
2019-03-11T22:37:45.166Z,8.13
2019-03-11T22:40:17.571Z,7.80
2019-03-11T22:42:46.206Z,7.77
2019-03-11T22:45:26.162Z,7.40
2019-03-11T22:47:54.767Z,8.00
2019-03-11T22:50:23.394Z,7.77
2019-03-11T22:52:52.066Z,8.67
2019-03-11T22:55:20.791Z,8.83
2019-03-11T22:57:49.414Z,8.80
2019-03-11T23:00:25.593Z,8.30
2019-03-11T23:02:54.191Z,8.67
2019-03-11T23:05:22.821Z,8.43
2019-03-11T23:07:51.491Z,8.33
2019-03-11T23:10:20.116Z,8.70
2019-03-11T23:12:48.718Z,6.77
2019-03-11T23:15:17.401Z,6.90
2019-03-11T23:17:45.893Z,6.77
2019-03-11T23:20:14.618Z,7.27
2019-03-11T23:22:43.226Z,7.03
2019-03-11T23:25:11.847Z,7.17
2019-03-11T23:27:40.521Z,6.73
2019-03-11T23:30:12.221Z,6.43
2019-03-11T23:32:40.805Z,6.33
2019-03-11T23:35:09.444Z,6.63
2019-03-11T23:37:38.070Z,7.10
2019-03-11T23:40:08.847Z,7.30
2019-03-11T23:42:37.522Z,6.87
2019-03-11T23:45:08.006Z,6.83
2019-03-11T23:47:36.577Z,6.70
2019-03-11T23:50:07.309Z,7.77
2019-03-11T23:52:35.868Z,7.53
2019-03-11T23:55:06.702Z,8.07
2019-03-11T23:57:35.301Z,7.47
